sensor_id;sensor_type;location;lat;lon;timestamp;P1;durP1;ratioP1;P2;durP2;ratioP2
42018;SDS011;27703;51.980;5.848;2023-07-13T00:01:27;2.70;;;0.30;;
42018;SDS011;27703;51.980;5.848;2023-07-13T00:03:54;3.20;;;0.60;;
42018;SDS011;27703;51.980;5.848;2023-07-13T00:06:21;1.30;;;0.70;;
42018;SDS011;27703;51.980;5.848;2023-07-13T00:08:47;1.85;;;0.40;;
42018;SDS011;27703;51.980;5.848;2023-07-13T00:11:14;2.85;;;0.40;;
42018;SDS011;27703;51.980;5.848;2023-07-13T00:13:40;2.78;;;0.32;;
42018;SDS011;27703;51.980;5.848;2023-07-13T00:16:07;2.08;;;0.30;;
42018;SDS011;27703;51.980;5.848;2023-07-13T00:18:34;3.40;;;0.40;;
42018;SDS011;27703;51.980;5.848;2023-07-13T00:21:00;3.63;;;0.40;;
42018;SDS011;27703;51.980;5.848;2023-07-13T00:23:30;5.38;;;0.40;;
42018;SDS011;27703;51.980;5.848;2023-07-13T00:25:58;2.75;;;0.32;;
42018;SDS011;27703;51.980;5.848;2023-07-13T00:28:25;1.95;;;0.30;;
42018;SDS011;27703;51.980;5.848;2023-07-13T00:30:51;3.13;;;0.30;;
42018;SDS011;27703;51.980;5.848;2023-07-13T00:33:16;3.10;;;0.40;;
42018;SDS011;27703;51.980;5.848;2023-07-13T00:35:42;1.95;;;0.20;;
42018;SDS011;27703;51.980;5.848;2023-07-13T00:38:09;2.63;;;0.30;;
42018;SDS011;27703;51.980;5.848;2023-07-13T00:40:34;3.53;;;0.38;;
42018;SDS011;27703;51.980;5.848;2023-07-13T00:43:00;1.48;;;0.20;;
42018;SDS011;27703;51.980;5.848;2023-07-13T00:47:52;1.30;;;0.22;;
42018;SDS011;27703;51.980;5.848;2023-07-13T00:50:18;2.72;;;0.35;;
42018;SDS011;27703;51.980;5.848;2023-07-13T00:52:46;2.00;;;0.20;;
42018;SDS011;27703;51.980;5.848;2023-07-13T00:55:15;2.10;;;0.30;;
42018;SDS011;27703;51.980;5.848;2023-07-13T00:57:42;2.40;;;0.52;;
42018;SDS011;27703;51.980;5.848;2023-07-13T01:00:09;1.13;;;0.20;;
42018;SDS011;27703;51.980;5.848;2023-07-13T01:02:40;1.83;;;0.25;;
42018;SDS011;27703;51.980;5.848;2023-07-13T01:05:09;3.72;;;0.20;;
42018;SDS011;27703;51.980;5.848;2023-07-13T01:07:35;2.13;;;0.30;;
42018;SDS011;27703;51.980;5.848;2023-07-13T01:10:02;4.70;;;0.32;;
42018;SDS011;27703;51.980;5.848;2023-07-13T01:12:28;4.55;;;0.77;;
42018;SDS011;27703;51.980;5.848;2023-07-13T01:14:59;2.30;;;0.22;;
42018;SDS011;27703;51.980;5.848;2023-07-13T01:17:27;2.42;;;0.20;;
42018;SDS011;27703;51.980;5.848;2023-07-13T01:19:54;1.48;;;0.20;;
42018;SDS011;27703;51.980;5.848;2023-07-13T01:22:20;3.50;;;0.40;;
42018;SDS011;27703;51.980;5.848;2023-07-13T01:24:50;1.92;;;0.47;;
42018;SDS011;27703;51.980;5.848;2023-07-13T01:27:19;2.35;;;0.30;;
42018;SDS011;27703;51.980;5.848;2023-07-13T01:29:48;2.40;;;0.30;;
42018;SDS011;27703;51.980;5.848;2023-07-13T01:32:19;1.40;;;0.28;;
42018;SDS011;27703;51.980;5.848;2023-07-13T01:34:49;3.40;;;0.30;;
42018;SDS011;27703;51.980;5.848;2023-07-13T01:37:19;1.75;;;0.30;;
42018;SDS011;27703;51.980;5.848;2023-07-13T01:39:44;3.38;;;0.30;;
42018;SDS011;27703;51.980;5.848;2023-07-13T01:42:10;1.67;;;0.30;;
42018;SDS011;27703;51.980;5.848;2023-07-13T01:44:35;3.92;;;0.30;;
42018;SDS011;27703;51.980;5.848;2023-07-13T01:47:01;3.22;;;0.35;;
42018;SDS011;27703;51.980;5.848;2023-07-13T01:49:27;1.90;;;0.30;;
42018;SDS011;27703;51.980;5.848;2023-07-13T01:51:53;1.40;;;0.22;;
42018;SDS011;27703;51.980;5.848;2023-07-13T01:54:18;2.72;;;0.50;;
42018;SDS011;27703;51.980;5.848;2023-07-13T01:56:44;1.38;;;0.32;;
42018;SDS011;27703;51.980;5.848;2023-07-13T01:59:10;1.95;;;0.38;;
42018;SDS011;27703;51.980;5.848;2023-07-13T02:01:35;4.47;;;0.52;;
42018;SDS011;27703;51.980;5.848;2023-07-13T02:04:01;1.42;;;0.40;;
42018;SDS011;27703;51.980;5.848;2023-07-13T02:06:27;2.47;;;0.47;;
42018;SDS011;27703;51.980;5.848;2023-07-13T02:08:53;1.85;;;0.40;;
42018;SDS011;27703;51.980;5.848;2023-07-13T02:11:19;2.00;;;0.30;;
42018;SDS011;27703;51.980;5.848;2023-07-13T02:13:45;1.35;;;0.30;;
42018;SDS011;27703;51.980;5.848;2023-07-13T02:16:10;3.08;;;0.30;;
42018;SDS011;27703;51.980;5.848;2023-07-13T02:18:36;1.92;;;0.20;;
42018;SDS011;27703;51.980;5.848;2023-07-13T02:21:02;2.15;;;0.30;;
42018;SDS011;27703;51.980;5.848;2023-07-13T02:23:28;3.25;;;0.40;;
42018;SDS011;27703;51.980;5.848;2023-07-13T02:25:55;5.60;;;0.40;;
42018;SDS011;27703;51.980;5.848;2023-07-13T02:28:21;5.70;;;0.30;;
42018;SDS011;27703;51.980;5.848;2023-07-13T02:30:47;2.72;;;0.40;;
42018;SDS011;27703;51.980;5.848;2023-07-13T02:33:13;2.65;;;0.38;;
42018;SDS011;27703;51.980;5.848;2023-07-13T02:35:38;2.40;;;0.52;;
42018;SDS011;27703;51.980;5.848;2023-07-13T02:38:04;2.78;;;0.60;;
42018;SDS011;27703;51.980;5.848;2023-07-13T02:40:30;3.00;;;0.50;;
42018;SDS011;27703;51.980;5.848;2023-07-13T02:42:58;3.30;;;0.40;;
42018;SDS011;27703;51.980;5.848;2023-07-13T02:45:24;3.38;;;0.43;;
42018;SDS011;27703;51.980;5.848;2023-07-13T02:47:50;1.00;;;0.30;;
42018;SDS011;27703;51.980;5.848;2023-07-13T02:50:16;3.80;;;0.50;;
42018;SDS011;27703;51.980;5.848;2023-07-13T02:52:41;1.83;;;0.60;;
42018;SDS011;27703;51.980;5.848;2023-07-13T02:55:07;3.08;;;0.60;;
42018;SDS011;27703;51.980;5.848;2023-07-13T02:57:33;1.10;;;0.32;;
42018;SDS011;27703;51.980;5.848;2023-07-13T02:59:59;1.90;;;0.40;;
42018;SDS011;27703;51.980;5.848;2023-07-13T03:02:25;3.25;;;0.45;;
42018;SDS011;27703;51.980;5.848;2023-07-13T03:04:53;2.22;;;0.60;;
42018;SDS011;27703;51.980;5.848;2023-07-13T03:07:20;4.88;;;0.40;;
42018;SDS011;27703;51.980;5.848;2023-07-13T03:09:45;3.85;;;0.45;;
42018;SDS011;27703;51.980;5.848;2023-07-13T03:12:11;6.22;;;0.68;;
42018;SDS011;27703;51.980;5.848;2023-07-13T03:14:36;3.47;;;0.75;;
42018;SDS011;27703;51.980;5.848;2023-07-13T03:17:02;5.22;;;0.60;;
42018;SDS011;27703;51.980;5.848;2023-07-13T03:19:28;4.68;;;0.60;;
42018;SDS011;27703;51.980;5.848;2023-07-13T03:21:53;3.90;;;0.77;;
42018;SDS011;27703;51.980;5.848;2023-07-13T03:24:19;4.55;;;0.60;;
42018;SDS011;27703;51.980;5.848;2023-07-13T03:26:45;9.70;;;1.23;;
42018;SDS011;27703;51.980;5.848;2023-07-13T03:29:11;2.97;;;0.60;;
42018;SDS011;27703;51.980;5.848;2023-07-13T03:31:37;2.00;;;0.50;;
42018;SDS011;27703;51.980;5.848;2023-07-13T03:34:03;3.15;;;1.25;;
42018;SDS011;27703;51.980;5.848;2023-07-13T03:36:30;4.80;;;0.70;;
42018;SDS011;27703;51.980;5.848;2023-07-13T03:38:58;2.03;;;0.55;;
42018;SDS011;27703;51.980;5.848;2023-07-13T03:41:25;3.50;;;0.50;;
42018;SDS011;27703;51.980;5.848;2023-07-13T03:43:51;5.03;;;0.70;;
42018;SDS011;27703;51.980;5.848;2023-07-13T03:46:17;4.57;;;0.77;;
42018;SDS011;27703;51.980;5.848;2023-07-13T03:48:44;2.25;;;0.63;;
42018;SDS011;27703;51.980;5.848;2023-07-13T03:51:11;3.85;;;0.60;;
42018;SDS011;27703;51.980;5.848;2023-07-13T03:53:39;4.28;;;0.80;;
42018;SDS011;27703;51.980;5.848;2023-07-13T03:56:07;1.75;;;0.50;;
42018;SDS011;27703;51.980;5.848;2023-07-13T03:58:35;6.07;;;0.82;;
42018;SDS011;27703;51.980;5.848;2023-07-13T04:01:03;4.78;;;0.60;;
42018;SDS011;27703;51.980;5.848;2023-07-13T04:03:31;2.22;;;0.60;;
42018;SDS011;27703;51.980;5.848;2023-07-13T04:06:01;4.97;;;0.63;;
42018;SDS011;27703;51.980;5.848;2023-07-13T04:08:29;3.75;;;0.60;;
42018;SDS011;27703;51.980;5.848;2023-07-13T04:10:58;2.55;;;0.55;;
42018;SDS011;27703;51.980;5.848;2023-07-13T04:13:25;3.08;;;0.60;;
42018;SDS011;27703;51.980;5.848;2023-07-13T04:15:51;3.25;;;0.50;;
42018;SDS011;27703;51.980;5.848;2023-07-13T04:18:18;2.45;;;0.57;;
42018;SDS011;27703;51.980;5.848;2023-07-13T04:20:48;6.88;;;0.80;;
42018;SDS011;27703;51.980;5.848;2023-07-13T04:23:14;5.40;;;0.80;;
42018;SDS011;27703;51.980;5.848;2023-07-13T04:25:47;4.80;;;0.75;;
42018;SDS011;27703;51.980;5.848;2023-07-13T04:28:17;3.15;;;0.70;;
42018;SDS011;27703;51.980;5.848;2023-07-13T04:30:48;4.57;;;1.20;;
42018;SDS011;27703;51.980;5.848;2023-07-13T04:33:14;5.93;;;0.98;;
42018;SDS011;27703;51.980;5.848;2023-07-13T04:35:42;3.13;;;0.73;;
42018;SDS011;27703;51.980;5.848;2023-07-13T04:38:08;3.75;;;0.70;;
42018;SDS011;27703;51.980;5.848;2023-07-13T04:40:36;4.25;;;0.60;;
42018;SDS011;27703;51.980;5.848;2023-07-13T04:43:02;7.15;;;1.63;;
42018;SDS011;27703;51.980;5.848;2023-07-13T04:45:27;3.42;;;0.90;;
42018;SDS011;27703;51.980;5.848;2023-07-13T04:47:53;3.72;;;1.17;;
42018;SDS011;27703;51.980;5.848;2023-07-13T04:50:18;4.80;;;1.25;;
42018;SDS011;27703;51.980;5.848;2023-07-13T04:52:48;7.20;;;1.08;;
42018;SDS011;27703;51.980;5.848;2023-07-13T04:55:17;5.75;;;0.90;;
42018;SDS011;27703;51.980;5.848;2023-07-13T04:57:43;5.00;;;1.00;;
42018;SDS011;27703;51.980;5.848;2023-07-13T05:00:10;5.03;;;1.63;;
42018;SDS011;27703;51.980;5.848;2023-07-13T05:02:37;5.82;;;0.80;;
42018;SDS011;27703;51.980;5.848;2023-07-13T05:05:04;5.97;;;1.50;;
42018;SDS011;27703;51.980;5.848;2023-07-13T05:07:30;5.43;;;1.33;;
42018;SDS011;27703;51.980;5.848;2023-07-13T05:09:58;6.57;;;1.42;;
42018;SDS011;27703;51.980;5.848;2023-07-13T05:12:24;5.05;;;1.33;;
42018;SDS011;27703;51.980;5.848;2023-07-13T05:14:50;10.65;;;1.55;;
42018;SDS011;27703;51.980;5.848;2023-07-13T05:17:16;5.50;;;1.98;;
42018;SDS011;27703;51.980;5.848;2023-07-13T05:19:41;4.88;;;1.85;;
42018;SDS011;27703;51.980;5.848;2023-07-13T05:22:08;9.48;;;1.70;;
42018;SDS011;27703;51.980;5.848;2023-07-13T05:24:33;6.38;;;2.83;;
42018;SDS011;27703;51.980;5.848;2023-07-13T05:26:59;4.47;;;1.55;;
42018;SDS011;27703;51.980;5.848;2023-07-13T05:29:25;7.85;;;2.60;;
42018;SDS011;27703;51.980;5.848;2023-07-13T05:31:50;6.13;;;1.73;;
42018;SDS011;27703;51.980;5.848;2023-07-13T05:34:16;9.68;;;1.63;;
42018;SDS011;27703;51.980;5.848;2023-07-13T05:36:42;6.90;;;2.38;;
42018;SDS011;27703;51.980;5.848;2023-07-13T05:39:08;4.68;;;1.52;;
42018;SDS011;27703;51.980;5.848;2023-07-13T05:41:34;8.00;;;2.13;;
42018;SDS011;27703;51.980;5.848;2023-07-13T05:44:00;8.80;;;2.65;;
42018;SDS011;27703;51.980;5.848;2023-07-13T05:46:26;10.48;;;3.70;;
42018;SDS011;27703;51.980;5.848;2023-07-13T05:48:52;9.30;;;2.83;;
42018;SDS011;27703;51.980;5.848;2023-07-13T05:51:17;9.70;;;2.70;;
42018;SDS011;27703;51.980;5.848;2023-07-13T05:53:43;18.08;;;3.22;;
42018;SDS011;27703;51.980;5.848;2023-07-13T05:56:09;10.50;;;3.20;;
42018;SDS011;27703;51.980;5.848;2023-07-13T05:58:34;11.73;;;3.67;;
42018;SDS011;27703;51.980;5.848;2023-07-13T06:01:05;9.43;;;4.63;;
42018;SDS011;27703;51.980;5.848;2023-07-13T06:03:36;11.48;;;4.85;;
42018;SDS011;27703;51.980;5.848;2023-07-13T06:06:05;12.82;;;5.13;;
42018;SDS011;27703;51.980;5.848;2023-07-13T06:08:32;10.43;;;4.25;;
42018;SDS011;27703;51.980;5.848;2023-07-13T06:11:05;16.45;;;4.97;;
42018;SDS011;27703;51.980;5.848;2023-07-13T06:13:33;16.42;;;7.65;;
42018;SDS011;27703;51.980;5.848;2023-07-13T06:15:59;16.80;;;9.18;;
42018;SDS011;27703;51.980;5.848;2023-07-13T06:18:25;17.15;;;8.20;;
42018;SDS011;27703;51.980;5.848;2023-07-13T06:20:51;19.65;;;8.55;;
42018;SDS011;27703;51.980;5.848;2023-07-13T06:23:17;15.13;;;7.03;;
42018;SDS011;27703;51.980;5.848;2023-07-13T06:25:42;17.08;;;8.70;;
42018;SDS011;27703;51.980;5.848;2023-07-13T06:28:08;17.52;;;10.20;;
42018;SDS011;27703;51.980;5.848;2023-07-13T06:30:34;21.83;;;9.00;;
42018;SDS011;27703;51.980;5.848;2023-07-13T06:32:59;16.95;;;7.95;;
42018;SDS011;27703;51.980;5.848;2023-07-13T06:35:25;15.45;;;7.55;;
42018;SDS011;27703;51.980;5.848;2023-07-13T06:37:51;17.70;;;9.82;;
42018;SDS011;27703;51.980;5.848;2023-07-13T06:40:16;18.65;;;10.57;;
42018;SDS011;27703;51.980;5.848;2023-07-13T06:42:42;18.05;;;10.68;;
42018;SDS011;27703;51.980;5.848;2023-07-13T06:45:08;17.95;;;8.82;;
42018;SDS011;27703;51.980;5.848;2023-07-13T06:47:34;14.88;;;8.02;;
42018;SDS011;27703;51.980;5.848;2023-07-13T06:49:59;16.20;;;9.52;;
42018;SDS011;27703;51.980;5.848;2023-07-13T06:52:25;17.25;;;9.88;;
42018;SDS011;27703;51.980;5.848;2023-07-13T06:54:51;20.33;;;9.50;;
42018;SDS011;27703;51.980;5.848;2023-07-13T06:57:17;23.10;;;9.90;;
42018;SDS011;27703;51.980;5.848;2023-07-13T06:59:42;15.15;;;9.77;;
42018;SDS011;27703;51.980;5.848;2023-07-13T07:02:08;22.55;;;10.48;;
42018;SDS011;27703;51.980;5.848;2023-07-13T07:04:35;15.95;;;9.10;;
42018;SDS011;27703;51.980;5.848;2023-07-13T07:07:01;15.18;;;9.77;;
42018;SDS011;27703;51.980;5.848;2023-07-13T07:09:27;15.85;;;10.55;;
42018;SDS011;27703;51.980;5.848;2023-07-13T07:11:54;15.77;;;8.98;;
42018;SDS011;27703;51.980;5.848;2023-07-13T07:14:20;13.63;;;9.10;;
42018;SDS011;27703;51.980;5.848;2023-07-13T07:16:45;20.17;;;10.90;;
42018;SDS011;27703;51.980;5.848;2023-07-13T07:19:11;18.50;;;10.57;;
42018;SDS011;27703;51.980;5.848;2023-07-13T07:21:37;22.83;;;9.02;;
42018;SDS011;27703;51.980;5.848;2023-07-13T07:24:02;15.65;;;10.32;;
42018;SDS011;27703;51.980;5.848;2023-07-13T07:26:29;15.85;;;9.65;;
42018;SDS011;27703;51.980;5.848;2023-07-13T07:28:55;15.10;;;9.00;;
42018;SDS011;27703;51.980;5.848;2023-07-13T07:31:21;19.25;;;9.77;;
42018;SDS011;27703;51.980;5.848;2023-07-13T07:33:46;14.52;;;8.63;;
42018;SDS011;27703;51.980;5.848;2023-07-13T07:36:14;17.02;;;10.00;;
42018;SDS011;27703;51.980;5.848;2023-07-13T07:38:41;22.15;;;11.88;;
42018;SDS011;27703;51.980;5.848;2023-07-13T07:41:07;13.77;;;10.05;;
42018;SDS011;27703;51.980;5.848;2023-07-13T07:43:32;15.35;;;10.13;;
42018;SDS011;27703;51.980;5.848;2023-07-13T07:45:58;17.88;;;9.25;;
42018;SDS011;27703;51.980;5.848;2023-07-13T07:48:24;22.95;;;9.48;;
42018;SDS011;27703;51.980;5.848;2023-07-13T07:50:49;18.58;;;9.55;;
42018;SDS011;27703;51.980;5.848;2023-07-13T07:53:15;15.45;;;9.60;;
42018;SDS011;27703;51.980;5.848;2023-07-13T07:55:41;18.80;;;9.63;;
42018;SDS011;27703;51.980;5.848;2023-07-13T07:58:06;21.08;;;11.43;;
42018;SDS011;27703;51.980;5.848;2023-07-13T08:00:32;18.60;;;11.10;;
42018;SDS011;27703;51.980;5.848;2023-07-13T08:02:58;17.55;;;13.43;;
42018;SDS011;27703;51.980;5.848;2023-07-13T08:05:24;17.73;;;10.07;;
42018;SDS011;27703;51.980;5.848;2023-07-13T08:07:51;14.40;;;10.48;;
42018;SDS011;27703;51.980;5.848;2023-07-13T08:10:16;15.98;;;10.63;;
42018;SDS011;27703;51.980;5.848;2023-07-13T08:12:42;15.98;;;9.55;;
42018;SDS011;27703;51.980;5.848;2023-07-13T08:15:12;19.73;;;10.00;;
42018;SDS011;27703;51.980;5.848;2023-07-13T08:17:40;15.73;;;10.55;;
42018;SDS011;27703;51.980;5.848;2023-07-13T08:20:06;15.20;;;8.85;;
42018;SDS011;27703;51.980;5.848;2023-07-13T08:22:33;16.60;;;9.48;;
42018;SDS011;27703;51.980;5.848;2023-07-13T08:24:59;16.80;;;10.05;;
42018;SDS011;27703;51.980;5.848;2023-07-13T08:27:25;12.88;;;9.07;;
42018;SDS011;27703;51.980;5.848;2023-07-13T08:29:52;18.30;;;9.27;;
42018;SDS011;27703;51.980;5.848;2023-07-13T08:32:19;17.45;;;10.02;;
42018;SDS011;27703;51.980;5.848;2023-07-13T08:34:46;15.95;;;9.73;;
42018;SDS011;27703;51.980;5.848;2023-07-13T08:37:11;13.40;;;8.75;;
42018;SDS011;27703;51.980;5.848;2023-07-13T08:39:37;12.63;;;9.93;;
42018;SDS011;27703;51.980;5.848;2023-07-13T08:47:30;14.27;;;9.77;;
42018;SDS011;27703;51.980;5.848;2023-07-13T08:50:00;14.97;;;9.80;;
42018;SDS011;27703;51.980;5.848;2023-07-13T08:52:29;23.45;;;10.65;;
42018;SDS011;27703;51.980;5.848;2023-07-13T08:55:12;14.50;;;8.02;;
42018;SDS011;27703;51.980;5.848;2023-07-13T08:57:48;14.00;;;8.40;;
42018;SDS011;27703;51.980;5.848;2023-07-13T09:00:21;16.95;;;8.63;;
42018;SDS011;27703;51.980;5.848;2023-07-13T09:02:56;15.25;;;7.47;;
42018;SDS011;27703;51.980;5.848;2023-07-13T09:05:33;14.65;;;6.80;;
42018;SDS011;27703;51.980;5.848;2023-07-13T09:10:43;10.25;;;5.53;;
42018;SDS011;27703;51.980;5.848;2023-07-13T09:16:10;15.10;;;6.47;;
42018;SDS011;27703;51.980;5.848;2023-07-13T09:18:38;10.75;;;5.47;;
42018;SDS011;27703;51.980;5.848;2023-07-13T09:21:11;12.80;;;5.50;;
42018;SDS011;27703;51.980;5.848;2023-07-13T09:23:41;5.47;;;3.25;;
42018;SDS011;27703;51.980;5.848;2023-07-13T09:26:11;6.22;;;3.33;;
42018;SDS011;27703;51.980;5.848;2023-07-13T09:28:42;10.80;;;4.80;;
42018;SDS011;27703;51.980;5.848;2023-07-13T09:31:13;11.15;;;4.32;;
42018;SDS011;27703;51.980;5.848;2023-07-13T09:33:47;8.65;;;4.30;;
42018;SDS011;27703;51.980;5.848;2023-07-13T09:38:58;4.32;;;1.73;;
42018;SDS011;27703;51.980;5.848;2023-07-13T09:44:30;4.07;;;0.80;;
42018;SDS011;27703;51.980;5.848;2023-07-13T09:46:59;6.07;;;1.33;;
42018;SDS011;27703;51.980;5.848;2023-07-13T09:49:25;8.27;;;1.77;;
42018;SDS011;27703;51.980;5.848;2023-07-13T09:52:02;4.82;;;1.27;;
42018;SDS011;27703;51.980;5.848;2023-07-13T09:54:32;4.65;;;1.55;;
42018;SDS011;27703;51.980;5.848;2023-07-13T09:57:00;5.15;;;1.70;;
42018;SDS011;27703;51.980;5.848;2023-07-13T09:59:33;7.32;;;2.63;;
42018;SDS011;27703;51.980;5.848;2023-07-13T10:02:01;7.95;;;2.38;;
42018;SDS011;27703;51.980;5.848;2023-07-13T10:04:47;8.85;;;2.33;;
42018;SDS011;27703;51.980;5.848;2023-07-13T10:07:28;6.50;;;2.35;;
42018;SDS011;27703;51.980;5.848;2023-07-13T10:09:54;7.15;;;2.55;;
42018;SDS011;27703;51.980;5.848;2023-07-13T10:12:22;9.88;;;2.97;;
42018;SDS011;27703;51.980;5.848;2023-07-13T10:14:51;6.50;;;2.60;;
42018;SDS011;27703;51.980;5.848;2023-07-13T10:17:31;11.25;;;2.78;;
42018;SDS011;27703;51.980;5.848;2023-07-13T10:20:02;7.93;;;1.85;;
42018;SDS011;27703;51.980;5.848;2023-07-13T10:23:14;8.05;;;2.10;;
42018;SDS011;27703;51.980;5.848;2023-07-13T10:25:31;7.10;;;2.38;;
42018;SDS011;27703;51.980;5.848;2023-07-13T10:30:55;8.25;;;1.92;;
42018;SDS011;27703;51.980;5.848;2023-07-13T10:33:23;6.55;;;1.50;;
42018;SDS011;27703;51.980;5.848;2023-07-13T10:35:49;5.68;;;1.33;;
42018;SDS011;27703;51.980;5.848;2023-07-13T10:38:21;4.90;;;1.13;;
42018;SDS011;27703;51.980;5.848;2023-07-13T10:43:27;8.77;;;1.60;;
42018;SDS011;27703;51.980;5.848;2023-07-13T10:45:57;7.13;;;1.70;;
42018;SDS011;27703;51.980;5.848;2023-07-13T10:48:24;8.40;;;2.58;;
42018;SDS011;27703;51.980;5.848;2023-07-13T10:50:51;5.70;;;2.67;;
42018;SDS011;27703;51.980;5.848;2023-07-13T10:53:28;5.72;;;2.10;;
42018;SDS011;27703;51.980;5.848;2023-07-13T10:56:00;6.27;;;1.77;;
42018;SDS011;27703;51.980;5.848;2023-07-13T10:58:46;5.50;;;1.63;;
42018;SDS011;27703;51.980;5.848;2023-07-13T11:01:15;4.68;;;1.05;;
42018;SDS011;27703;51.980;5.848;2023-07-13T11:08:55;5.15;;;1.08;;
42018;SDS011;27703;51.980;5.848;2023-07-13T11:13:57;3.65;;;0.90;;
42018;SDS011;27703;51.980;5.848;2023-07-13T11:21:30;3.80;;;0.63;;
42018;SDS011;27703;51.980;5.848;2023-07-13T11:24:03;2.22;;;0.50;;
42018;SDS011;27703;51.980;5.848;2023-07-13T11:26:43;4.25;;;0.43;;
42018;SDS011;27703;51.980;5.848;2023-07-13T11:31:40;1.73;;;0.40;;
42018;SDS011;27703;51.980;5.848;2023-07-13T11:34:13;2.53;;;0.60;;
42018;SDS011;27703;51.980;5.848;2023-07-13T11:36:42;2.22;;;0.30;;
42018;SDS011;27703;51.980;5.848;2023-07-13T11:41:44;1.70;;;0.40;;
42018;SDS011;27703;51.980;5.848;2023-07-13T11:44:22;2.72;;;0.50;;
42018;SDS011;27703;51.980;5.848;2023-07-13T11:46:51;4.93;;;0.57;;
42018;SDS011;27703;51.980;5.848;2023-07-13T11:49:20;2.65;;;0.50;;
42018;SDS011;27703;51.980;5.848;2023-07-13T11:51:50;1.92;;;0.55;;
42018;SDS011;27703;51.980;5.848;2023-07-13T11:54:32;2.10;;;0.47;;
42018;SDS011;27703;51.980;5.848;2023-07-13T11:57:29;2.53;;;0.60;;
42018;SDS011;27703;51.980;5.848;2023-07-13T12:00:09;3.63;;;0.82;;
42018;SDS011;27703;51.980;5.848;2023-07-13T12:02:44;3.03;;;0.70;;
42018;SDS011;27703;51.980;5.848;2023-07-13T12:05:14;3.25;;;0.63;;
42018;SDS011;27703;51.980;5.848;2023-07-13T12:07:42;3.47;;;0.95;;
42018;SDS011;27703;51.980;5.848;2023-07-13T12:12:37;3.38;;;0.80;;
42018;SDS011;27703;51.980;5.848;2023-07-13T12:15:08;4.00;;;1.15;;
42018;SDS011;27703;51.980;5.848;2023-07-13T12:17:36;4.85;;;0.95;;
42018;SDS011;27703;51.980;5.848;2023-07-13T12:20:03;7.97;;;0.70;;
42018;SDS011;27703;51.980;5.848;2023-07-13T12:22:45;4.78;;;1.00;;
42018;SDS011;27703;51.980;5.848;2023-07-13T12:25:12;2.75;;;0.57;;
42018;SDS011;27703;51.980;5.848;2023-07-13T12:27:38;2.03;;;0.50;;
42018;SDS011;27703;51.980;5.848;2023-07-13T12:30:05;4.70;;;1.02;;
42018;SDS011;27703;51.980;5.848;2023-07-13T12:33:01;4.07;;;0.57;;
42018;SDS011;27703;51.980;5.848;2023-07-13T12:35:46;3.20;;;0.60;;
42018;SDS011;27703;51.980;5.848;2023-07-13T12:38:14;1.80;;;0.55;;
42018;SDS011;27703;51.980;5.848;2023-07-13T12:40:41;4.43;;;0.60;;
42018;SDS011;27703;51.980;5.848;2023-07-13T12:43:13;1.25;;;0.40;;
42018;SDS011;27703;51.980;5.848;2023-07-13T12:45:39;3.53;;;0.50;;
42018;SDS011;27703;51.980;5.848;2023-07-13T12:48:24;1.25;;;0.30;;
42018;SDS011;27703;51.980;5.848;2023-07-13T12:50:51;2.22;;;0.45;;
42018;SDS011;27703;51.980;5.848;2023-07-13T12:53:20;1.70;;;0.43;;
42018;SDS011;27703;51.980;5.848;2023-07-13T12:55:55;2.53;;;0.40;;
42018;SDS011;27703;51.980;5.848;2023-07-13T13:01:04;2.25;;;0.30;;
42018;SDS011;27703;51.980;5.848;2023-07-13T13:03:34;1.80;;;0.50;;
42018;SDS011;27703;51.980;5.848;2023-07-13T13:08:32;1.60;;;0.35;;
42018;SDS011;27703;51.980;5.848;2023-07-13T13:11:00;1.75;;;0.30;;
42018;SDS011;27703;51.980;5.848;2023-07-13T13:13:27;0.73;;;0.30;;
42018;SDS011;27703;51.980;5.848;2023-07-13T13:15:53;1.48;;;0.40;;
42018;SDS011;27703;51.980;5.848;2023-07-13T13:18:20;1.27;;;0.30;;
42018;SDS011;27703;51.980;5.848;2023-07-13T13:20:47;0.95;;;0.32;;
42018;SDS011;27703;51.980;5.848;2023-07-13T13:23:15;1.75;;;0.32;;
42018;SDS011;27703;51.980;5.848;2023-07-13T13:25:43;2.13;;;0.40;;
42018;SDS011;27703;51.980;5.848;2023-07-13T13:28:15;1.40;;;0.50;;
42018;SDS011;27703;51.980;5.848;2023-07-13T13:30:45;2.67;;;0.40;;
42018;SDS011;27703;51.980;5.848;2023-07-13T13:33:13;1.73;;;0.40;;
42018;SDS011;27703;51.980;5.848;2023-07-13T13:35:41;2.90;;;0.47;;
42018;SDS011;27703;51.980;5.848;2023-07-13T13:38:12;1.77;;;0.40;;
42018;SDS011;27703;51.980;5.848;2023-07-13T13:40:39;0.82;;;0.30;;
42018;SDS011;27703;51.980;5.848;2023-07-13T13:45:51;3.28;;;0.70;;
42018;SDS011;27703;51.980;5.848;2023-07-13T13:48:19;3.25;;;0.40;;
42018;SDS011;27703;51.980;5.848;2023-07-13T13:50:47;1.27;;;0.28;;
42018;SDS011;27703;51.980;5.848;2023-07-13T13:53:13;2.95;;;0.40;;
42018;SDS011;27703;51.980;5.848;2023-07-13T13:55:39;1.52;;;0.40;;
42018;SDS011;27703;51.980;5.848;2023-07-13T13:58:07;1.60;;;0.40;;
42018;SDS011;27703;51.980;5.848;2023-07-13T14:00:36;3.33;;;0.50;;
42018;SDS011;27703;51.980;5.848;2023-07-13T14:03:05;1.27;;;0.32;;
42018;SDS011;27703;51.980;5.848;2023-07-13T14:05:38;3.25;;;0.47;;
42018;SDS011;27703;51.980;5.848;2023-07-13T14:08:08;3.45;;;0.50;;
42018;SDS011;27703;51.980;5.848;2023-07-13T14:10:47;2.40;;;0.40;;
42018;SDS011;27703;51.980;5.848;2023-07-13T14:13:20;4.07;;;0.60;;
42018;SDS011;27703;51.980;5.848;2023-07-13T14:15:51;2.78;;;0.47;;
42018;SDS011;27703;51.980;5.848;2023-07-13T14:18:17;1.15;;;0.40;;
42018;SDS011;27703;51.980;5.848;2023-07-13T14:20:43;1.42;;;0.40;;
42018;SDS011;27703;51.980;5.848;2023-07-13T14:23:11;2.60;;;0.30;;
42018;SDS011;27703;51.980;5.848;2023-07-13T14:25:38;2.58;;;0.40;;
42018;SDS011;27703;51.980;5.848;2023-07-13T14:28:10;1.88;;;0.40;;
42018;SDS011;27703;51.980;5.848;2023-07-13T14:30:42;2.08;;;0.50;;
42018;SDS011;27703;51.980;5.848;2023-07-13T14:33:08;1.23;;;0.35;;
42018;SDS011;27703;51.980;5.848;2023-07-13T14:35:34;1.73;;;0.40;;
42018;SDS011;27703;51.980;5.848;2023-07-13T14:38:00;4.07;;;0.40;;
42018;SDS011;27703;51.980;5.848;2023-07-13T14:40:28;1.27;;;0.40;;
42018;SDS011;27703;51.980;5.848;2023-07-13T14:42:55;1.65;;;0.30;;
42018;SDS011;27703;51.980;5.848;2023-07-13T14:45:21;1.85;;;0.40;;
42018;SDS011;27703;51.980;5.848;2023-07-13T14:47:47;1.23;;;0.40;;
42018;SDS011;27703;51.980;5.848;2023-07-13T14:52:41;2.28;;;0.40;;
42018;SDS011;27703;51.980;5.848;2023-07-13T14:55:14;0.70;;;0.30;;
42018;SDS011;27703;51.980;5.848;2023-07-13T14:57:41;1.00;;;0.30;;
42018;SDS011;27703;51.980;5.848;2023-07-13T15:00:14;1.70;;;0.30;;
42018;SDS011;27703;51.980;5.848;2023-07-13T15:02:47;1.98;;;0.40;;
42018;SDS011;27703;51.980;5.848;2023-07-13T15:05:23;0.85;;;0.40;;
42018;SDS011;27703;51.980;5.848;2023-07-13T15:07:53;1.55;;;0.40;;
42018;SDS011;27703;51.980;5.848;2023-07-13T15:10:25;1.90;;;0.30;;
42018;SDS011;27703;51.980;5.848;2023-07-13T15:12:57;4.72;;;0.40;;
42018;SDS011;27703;51.980;5.848;2023-07-13T15:15:37;1.80;;;0.38;;
42018;SDS011;27703;51.980;5.848;2023-07-13T15:18:05;2.08;;;0.30;;
42018;SDS011;27703;51.980;5.848;2023-07-13T15:20:34;1.67;;;0.40;;
42018;SDS011;27703;51.980;5.848;2023-07-13T15:23:00;1.75;;;0.30;;
42018;SDS011;27703;51.980;5.848;2023-07-13T15:25:28;2.05;;;0.40;;
42018;SDS011;27703;51.980;5.848;2023-07-13T15:27:55;1.27;;;0.50;;
42018;SDS011;27703;51.980;5.848;2023-07-13T15:30:24;2.15;;;0.40;;
42018;SDS011;27703;51.980;5.848;2023-07-13T15:32:52;1.60;;;0.40;;
42018;SDS011;27703;51.980;5.848;2023-07-13T15:35:19;2.40;;;0.50;;
42018;SDS011;27703;51.980;5.848;2023-07-13T15:37:47;2.13;;;0.50;;
42018;SDS011;27703;51.980;5.848;2023-07-13T15:40:15;1.73;;;0.40;;
42018;SDS011;27703;51.980;5.848;2023-07-13T15:42:41;0.98;;;0.30;;
42018;SDS011;27703;51.980;5.848;2023-07-13T15:45:19;1.88;;;0.40;;